createdAt,value
2019-03-30T00:00:44.523Z,18.35
2019-03-30T00:03:33.414Z,17.55
2019-03-30T00:06:23.016Z,18.65
2019-03-30T00:09:12.715Z,19.20
2019-03-30T00:12:02.668Z,17.30
2019-03-30T00:14:52.250Z,18.92
2019-03-30T00:17:41.215Z,17.95
2019-03-30T00:20:30.818Z,17.43
2019-03-30T00:23:20.098Z,17.80
2019-03-30T00:26:10.420Z,20.30
2019-03-30T00:28:59.887Z,82.15
2019-03-30T00:31:48.682Z,32.15
2019-03-30T00:36:01.794Z,20.90
2019-03-30T00:38:51.396Z,18.43
2019-03-30T00:41:40.887Z,19.40
2019-03-30T00:44:29.975Z,24.02
2019-03-30T00:47:19.623Z,29.52
2019-03-30T00:50:09.625Z,22.67
2019-03-30T00:52:58.851Z,38.80
2019-03-30T00:55:47.998Z,57.03
2019-03-30T00:58:37.657Z,37.65
2019-03-30T01:01:27.666Z,17.50
2019-03-30T01:04:16.938Z,16.48
2019-03-30T01:07:06.475Z,14.85
2019-03-30T01:09:55.710Z,15.08
2019-03-30T01:12:44.750Z,15.18
2019-03-30T01:15:34.172Z,15.23
2019-03-30T01:18:24.026Z,14.87
2019-03-30T01:21:13.846Z,15.43
2019-03-30T01:24:03.663Z,15.20
2019-03-30T01:26:53.232Z,14.63
2019-03-30T01:29:42.219Z,14.53
2019-03-30T01:32:31.280Z,13.53
2019-03-30T01:35:21.066Z,14.50
2019-03-30T01:38:10.975Z,14.47
2019-03-30T01:41:00.088Z,14.05
2019-03-30T01:43:49.131Z,13.58
2019-03-30T01:46:38.824Z,13.88
2019-03-30T01:49:28.281Z,12.98
2019-03-30T01:52:18.181Z,13.48
2019-03-30T01:55:08.136Z,13.60
2019-03-30T01:57:56.664Z,13.75
2019-03-30T02:00:45.372Z,12.90
2019-03-30T02:03:34.954Z,13.28
2019-03-30T02:06:24.604Z,14.07
2019-03-30T02:09:13.999Z,13.40
2019-03-30T02:12:03.636Z,13.70
2019-03-30T02:14:53.418Z,14.23
2019-03-30T02:17:42.798Z,13.90
2019-03-30T02:20:51.165Z,13.80
2019-03-30T02:23:40.399Z,13.60
2019-03-30T02:26:30.171Z,15.25
2019-03-30T02:29:19.663Z,15.45
2019-03-30T02:32:09.024Z,13.93
2019-03-30T02:34:58.646Z,14.05
2019-03-30T02:37:48.393Z,14.30
2019-03-30T02:40:37.718Z,15.03
2019-03-30T02:43:27.484Z,12.43
2019-03-30T02:46:17.191Z,11.28
2019-03-30T02:49:06.776Z,13.60
2019-03-30T02:51:55.683Z,15.18
2019-03-30T02:54:45.492Z,15.28
2019-03-30T02:57:34.533Z,13.60
2019-03-30T03:00:23.972Z,13.40
2019-03-30T03:03:13.698Z,13.60
2019-03-30T03:06:02.470Z,14.43
2019-03-30T03:08:51.982Z,14.80
2019-03-30T03:11:41.617Z,14.15
2019-03-30T03:14:31.133Z,13.32
2019-03-30T03:17:20.505Z,13.60
2019-03-30T03:20:10.921Z,13.60
2019-03-30T03:23:00.198Z,13.40
2019-03-30T03:25:49.138Z,13.10
2019-03-30T03:28:38.720Z,13.60
2019-03-30T03:31:28.241Z,13.00
2019-03-30T03:34:17.866Z,13.48
2019-03-30T03:37:07.610Z,13.13
2019-03-30T03:39:57.107Z,13.48
2019-03-30T03:42:46.681Z,13.70
2019-03-30T03:45:36.473Z,12.88
2019-03-30T03:48:26.057Z,13.05
2019-03-30T03:51:26.311Z,13.35
2019-03-30T03:54:08.971Z,13.48
2019-03-30T03:56:59.732Z,14.70
2019-03-30T03:59:51.897Z,14.05
2019-03-30T04:02:42.063Z,14.50
2019-03-30T04:05:32.022Z,13.70
2019-03-30T04:08:23.279Z,14.90
2019-03-30T04:11:14.774Z,15.45
2019-03-30T04:14:05.267Z,15.03
2019-03-30T04:16:55.033Z,14.23
2019-03-30T04:19:43.950Z,15.15
2019-03-30T04:22:33.572Z,14.73
2019-03-30T04:25:22.889Z,14.63
2019-03-30T04:28:12.375Z,14.28
2019-03-30T04:31:00.947Z,14.23
2019-03-30T04:33:49.824Z,13.10
2019-03-30T04:36:39.323Z,14.53
2019-03-30T04:39:30.330Z,14.18
2019-03-30T04:42:19.981Z,14.75
2019-03-30T04:45:09.729Z,14.70
2019-03-30T04:47:59.117Z,14.85
2019-03-30T04:50:48.485Z,15.15
2019-03-30T04:53:37.729Z,15.18
2019-03-30T04:56:27.621Z,15.90
2019-03-30T04:59:17.219Z,15.18
2019-03-30T05:02:06.417Z,13.08
2019-03-30T05:04:55.898Z,12.47
2019-03-30T05:07:45.339Z,12.87
2019-03-30T05:10:35.227Z,13.05
2019-03-30T05:13:24.295Z,12.10
2019-03-30T05:16:13.371Z,12.33
2019-03-30T05:19:02.258Z,11.75
2019-03-30T05:21:51.734Z,12.13
2019-03-30T05:24:41.011Z,11.80
2019-03-30T05:27:30.480Z,11.93
2019-03-30T05:30:19.779Z,10.98
2019-03-30T05:33:10.783Z,11.00
2019-03-30T05:36:00.135Z,11.08
2019-03-30T05:38:49.349Z,12.30
2019-03-30T05:41:38.915Z,11.10
2019-03-30T05:44:28.242Z,11.97
2019-03-30T05:47:17.587Z,12.18
2019-03-30T05:50:07.005Z,11.73
2019-03-30T05:52:56.657Z,10.10
2019-03-30T05:55:46.621Z,12.05
2019-03-30T05:58:35.457Z,11.05
2019-03-30T06:01:25.124Z,11.00
2019-03-30T06:04:14.755Z,9.83
2019-03-30T06:07:03.909Z,11.28
2019-03-30T06:09:53.194Z,10.80
2019-03-30T06:12:42.171Z,11.85
2019-03-30T06:15:31.739Z,10.78
2019-03-30T06:18:21.443Z,11.38
2019-03-30T06:21:12.139Z,10.30
2019-03-30T06:24:00.973Z,10.97
2019-03-30T06:26:50.494Z,10.23
2019-03-30T06:29:39.647Z,10.50
2019-03-30T06:32:29.230Z,11.57
2019-03-30T06:35:18.810Z,10.70
2019-03-30T06:38:08.556Z,9.63
2019-03-30T06:40:57.809Z,10.08
2019-03-30T06:43:47.170Z,11.30
2019-03-30T06:46:39.476Z,11.00
2019-03-30T06:49:28.283Z,10.68
2019-03-30T06:52:17.335Z,10.50
2019-03-30T06:55:07.114Z,10.03
2019-03-30T06:57:56.054Z,11.18
2019-03-30T07:00:48.031Z,10.38
2019-03-30T07:03:37.575Z,10.78
2019-03-30T07:06:29.110Z,10.60
2019-03-30T07:09:21.439Z,10.13
2019-03-30T07:12:10.876Z,9.58
2019-03-30T07:15:03.012Z,10.38
2019-03-30T07:17:54.420Z,10.03
2019-03-30T07:20:44.257Z,10.90
2019-03-30T07:23:33.219Z,10.57
2019-03-30T07:26:22.803Z,10.30
2019-03-30T07:29:12.583Z,10.88
2019-03-30T07:32:02.260Z,11.80
2019-03-30T07:34:51.454Z,11.00
2019-03-30T07:37:40.855Z,12.23
2019-03-30T07:40:30.219Z,12.58
2019-03-30T07:43:19.740Z,11.75
2019-03-30T07:46:08.996Z,11.80
2019-03-30T07:48:58.564Z,11.33
2019-03-30T07:51:47.951Z,9.93
2019-03-30T07:54:40.494Z,10.47
2019-03-30T07:57:30.387Z,11.90
2019-03-30T08:00:19.827Z,11.97
2019-03-30T08:03:09.867Z,10.28
2019-03-30T08:05:59.296Z,11.55
2019-03-30T08:08:48.728Z,10.63
2019-03-30T08:11:37.502Z,11.35
2019-03-30T08:14:26.785Z,12.98
2019-03-30T08:17:16.235Z,10.82
2019-03-30T08:20:06.579Z,11.15
2019-03-30T08:22:57.577Z,12.40
2019-03-30T08:25:46.531Z,11.57
2019-03-30T08:28:36.445Z,13.05
2019-03-30T08:31:25.577Z,11.10
2019-03-30T08:34:14.645Z,12.95
2019-03-30T08:37:04.082Z,11.63
2019-03-30T08:39:53.550Z,12.50
2019-03-30T08:42:43.377Z,12.63
2019-03-30T08:45:33.012Z,13.08
2019-03-30T08:48:22.849Z,11.95
2019-03-30T08:51:12.332Z,12.85
2019-03-30T08:54:01.707Z,12.70
2019-03-30T08:56:51.598Z,12.58
2019-03-30T08:59:40.946Z,12.47
2019-03-30T09:02:30.704Z,13.68
2019-03-30T09:05:20.050Z,12.28
2019-03-30T09:08:09.717Z,12.30
2019-03-30T09:10:58.631Z,12.90
2019-03-30T09:13:48.464Z,12.87
2019-03-30T09:16:38.318Z,12.83
2019-03-30T09:19:27.480Z,12.20
2019-03-30T09:22:16.191Z,13.00
2019-03-30T09:25:05.992Z,12.60
2019-03-30T09:27:54.827Z,12.80
2019-03-30T09:30:44.453Z,12.57
2019-03-30T09:33:33.185Z,11.70
2019-03-30T09:36:22.209Z,11.90
2019-03-30T09:39:12.001Z,14.10
2019-03-30T09:42:01.766Z,12.80
2019-03-30T09:44:51.503Z,11.40
2019-03-30T09:47:40.889Z,12.47
2019-03-30T09:50:30.258Z,12.57
2019-03-30T09:53:20.031Z,12.27
2019-03-30T09:56:09.440Z,10.77
2019-03-30T09:58:58.601Z,10.50
2019-03-30T10:01:48.353Z,11.40
2019-03-30T10:04:37.653Z,11.13
2019-03-30T10:07:26.976Z,12.40
2019-03-30T10:10:16.639Z,12.43
2019-03-30T10:13:06.052Z,13.83
2019-03-30T10:15:55.827Z,12.27
2019-03-30T10:18:45.556Z,10.93
2019-03-30T10:21:34.443Z,12.73
2019-03-30T10:24:37.435Z,13.20
2019-03-30T10:27:14.763Z,12.90
2019-03-30T10:30:04.696Z,12.40
2019-03-30T10:32:54.274Z,12.23
2019-03-30T10:35:44.009Z,11.10
2019-03-30T10:38:33.302Z,10.87
2019-03-30T10:41:22.825Z,10.60
2019-03-30T10:44:12.437Z,9.93
2019-03-30T10:47:01.762Z,11.40
2019-03-30T10:49:54.374Z,11.93
2019-03-30T10:52:43.714Z,13.10
2019-03-30T10:55:33.384Z,12.50
2019-03-30T10:58:23.166Z,12.73
2019-03-30T11:01:12.720Z,11.17
2019-03-30T11:04:02.169Z,11.60
2019-03-30T11:06:51.621Z,12.80
2019-03-30T11:09:41.054Z,12.70
2019-03-30T11:12:30.133Z,12.87
2019-03-30T11:15:19.204Z,11.73
2019-03-30T11:18:10.586Z,12.00
2019-03-30T11:21:04.076Z,12.20
2019-03-30T11:23:53.626Z,12.63
2019-03-30T11:26:42.762Z,12.30
2019-03-30T11:29:32.346Z,14.50
2019-03-30T11:32:21.237Z,15.58
2019-03-30T11:35:10.974Z,15.70
2019-03-30T11:38:00.900Z,16.48
2019-03-30T11:40:50.382Z,15.95
2019-03-30T11:43:39.912Z,15.18
2019-03-30T11:46:29.184Z,15.68
2019-03-30T11:49:18.421Z,15.18
2019-03-30T11:52:07.650Z,15.83
2019-03-30T11:54:57.058Z,14.93
2019-03-30T11:57:46.565Z,14.85
2019-03-30T12:00:37.281Z,14.40
2019-03-30T12:03:27.019Z,14.98
2019-03-30T12:06:17.072Z,15.78
2019-03-30T12:09:08.255Z,14.87
2019-03-30T12:11:57.586Z,15.10
2019-03-30T12:14:47.051Z,14.73
2019-03-30T12:17:36.916Z,14.90
2019-03-30T12:20:26.211Z,16.12
2019-03-30T12:23:15.459Z,15.30
2019-03-30T12:26:05.001Z,14.75
2019-03-30T12:28:54.569Z,16.73
2019-03-30T12:31:43.687Z,14.07
2019-03-30T12:34:33.095Z,13.95
2019-03-30T12:37:22.535Z,15.05
2019-03-30T12:40:12.152Z,16.32
2019-03-30T12:43:01.276Z,14.03
2019-03-30T12:45:50.839Z,14.40
2019-03-30T12:48:39.897Z,13.60
2019-03-30T12:51:29.539Z,12.85
2019-03-30T12:54:18.872Z,13.53
2019-03-30T12:57:08.503Z,13.20
2019-03-30T12:59:59.339Z,13.65
2019-03-30T13:02:49.018Z,13.15
2019-03-30T13:05:38.479Z,13.40
2019-03-30T13:08:27.473Z,12.95
2019-03-30T13:11:16.463Z,13.90
2019-03-30T13:14:05.680Z,13.57
2019-03-30T13:16:55.287Z,14.53
2019-03-30T13:19:44.467Z,14.80
2019-03-30T13:22:34.371Z,13.83
2019-03-30T13:25:23.987Z,13.80
2019-03-30T13:28:13.687Z,13.65
2019-03-30T13:31:03.078Z,13.32
2019-03-30T13:33:52.334Z,13.40
2019-03-30T13:36:42.646Z,13.23
2019-03-30T13:39:32.361Z,13.30
2019-03-30T13:42:21.442Z,11.50
2019-03-30T13:45:11.183Z,12.00
2019-03-30T13:48:00.351Z,12.58
2019-03-30T13:50:49.116Z,12.23
2019-03-30T13:53:38.599Z,12.10
2019-03-30T13:56:28.289Z,11.48
2019-03-30T13:59:17.429Z,12.50
2019-03-30T14:02:06.213Z,11.80
2019-03-30T14:04:55.976Z,11.12
2019-03-30T14:07:45.331Z,9.80
2019-03-30T14:10:34.327Z,10.50
2019-03-30T14:13:23.651Z,12.45
2019-03-30T14:16:13.249Z,11.73
2019-03-30T14:19:02.479Z,9.97
2019-03-30T14:21:52.232Z,11.20
2019-03-30T14:24:41.239Z,9.60
2019-03-30T14:27:31.013Z,9.73
2019-03-30T14:30:20.147Z,9.60
2019-03-30T14:33:09.300Z,8.90
2019-03-30T14:35:59.338Z,9.43
2019-03-30T14:38:48.149Z,11.20
2019-03-30T14:41:37.149Z,11.03
2019-03-30T14:44:26.983Z,10.70
2019-03-30T14:47:16.131Z,11.67
2019-03-30T14:50:07.085Z,11.57
2019-03-30T14:52:56.112Z,11.90
2019-03-30T14:55:45.301Z,10.40
2019-03-30T14:58:34.465Z,11.33
2019-03-30T15:01:23.704Z,11.17
2019-03-30T15:04:13.166Z,12.03
2019-03-30T15:07:02.777Z,11.37
2019-03-30T15:09:52.523Z,11.63
2019-03-30T15:12:41.979Z,12.33
2019-03-30T15:15:31.536Z,11.07
2019-03-30T15:18:20.818Z,12.10
2019-03-30T15:21:09.885Z,11.70
2019-03-30T15:23:59.322Z,10.47
2019-03-30T15:26:59.802Z,12.37
2019-03-30T15:29:39.830Z,12.10
2019-03-30T15:32:28.507Z,11.00
2019-03-30T15:35:17.592Z,11.73
2019-03-30T15:38:07.324Z,11.20
2019-03-30T15:40:56.769Z,11.00
2019-03-30T15:43:45.952Z,12.30
2019-03-30T15:46:35.114Z,10.77
2019-03-30T15:49:24.370Z,11.20
2019-03-30T15:52:14.485Z,11.70
2019-03-30T15:55:04.221Z,12.43
2019-03-30T15:57:53.560Z,10.53
2019-03-30T16:00:43.271Z,11.10
2019-03-30T16:03:32.959Z,10.77
2019-03-30T16:06:22.602Z,10.47
2019-03-30T16:09:11.618Z,10.93
2019-03-30T16:12:01.053Z,11.23
2019-03-30T16:14:50.480Z,10.67
2019-03-30T16:17:39.949Z,24.30
2019-03-30T16:20:29.005Z,11.10
2019-03-30T16:23:18.514Z,10.90
2019-03-30T16:26:07.221Z,21.67
2019-03-30T16:28:56.519Z,45.67
2019-03-30T16:31:46.099Z,12.73
2019-03-30T16:34:34.752Z,12.70
2019-03-30T16:37:24.352Z,11.23
2019-03-30T16:40:13.837Z,11.03
2019-03-30T16:43:02.796Z,11.30
2019-03-30T16:45:52.194Z,12.47
2019-03-30T16:48:41.420Z,12.40
2019-03-30T16:51:30.277Z,11.37
2019-03-30T16:54:19.902Z,12.13
2019-03-30T16:57:09.227Z,11.80
2019-03-30T16:59:58.683Z,12.23
2019-03-30T17:02:48.018Z,11.77
2019-03-30T17:05:37.320Z,11.03
2019-03-30T17:08:26.951Z,10.77
2019-03-30T17:11:16.687Z,11.27
2019-03-30T17:14:05.881Z,11.73
2019-03-30T17:16:54.463Z,12.57
2019-03-30T17:19:43.832Z,11.00
2019-03-30T17:22:33.647Z,10.70
2019-03-30T17:25:22.255Z,9.83
2019-03-30T17:28:10.950Z,10.37
2019-03-30T17:30:59.864Z,9.90
2019-03-30T17:33:50.071Z,10.20
2019-03-30T17:36:39.257Z,10.27
2019-03-30T17:39:28.882Z,10.30
2019-03-30T17:42:18.343Z,9.17
2019-03-30T17:45:08.352Z,10.30
2019-03-30T17:47:57.953Z,9.13
2019-03-30T17:50:46.969Z,9.43
2019-03-30T17:53:39.291Z,9.83
2019-03-30T17:56:27.530Z,9.63
2019-03-30T17:59:16.457Z,10.47
2019-03-30T18:02:06.195Z,9.77
2019-03-30T18:04:55.322Z,9.73
2019-03-30T18:07:44.996Z,10.75
2019-03-30T18:10:34.734Z,11.97
2019-03-30T18:13:23.951Z,11.13
2019-03-30T18:16:13.160Z,12.17
2019-03-30T18:19:02.199Z,11.50
2019-03-30T18:21:51.824Z,14.03
2019-03-30T18:24:41.332Z,14.50
2019-03-30T18:27:30.643Z,12.83
2019-03-30T18:30:35.113Z,14.30
2019-03-30T18:33:25.234Z,12.93
2019-03-30T18:36:18.682Z,12.20
2019-03-30T18:39:10.059Z,15.83
2019-03-30T18:41:59.206Z,17.50
2019-03-30T18:44:50.641Z,20.40
2019-03-30T18:47:39.911Z,17.17
2019-03-30T18:50:31.450Z,21.90
2019-03-30T18:53:20.354Z,25.70
2019-03-30T18:56:09.750Z,24.30
2019-03-30T18:58:59.122Z,25.47
2019-03-30T19:01:49.081Z,26.73
2019-03-30T19:04:38.574Z,23.60
2019-03-30T19:07:28.038Z,22.10
2019-03-30T19:10:17.337Z,20.77
2019-03-30T19:13:07.005Z,19.12
2019-03-30T19:15:55.900Z,17.45
2019-03-30T19:18:45.354Z,19.25
2019-03-30T19:21:34.733Z,18.60
2019-03-30T19:24:24.035Z,17.27
2019-03-30T19:27:12.854Z,17.62
2019-03-30T19:30:02.707Z,18.37
2019-03-30T19:32:52.730Z,20.00
2019-03-30T19:35:42.397Z,18.50
2019-03-30T19:38:32.075Z,20.00
2019-03-30T19:41:21.691Z,20.15
2019-03-30T19:44:11.101Z,22.93
2019-03-30T19:47:01.097Z,25.15
2019-03-30T19:49:50.943Z,18.82
2019-03-30T19:52:40.740Z,18.30
2019-03-30T19:55:30.706Z,17.50
2019-03-30T19:58:20.227Z,17.30
2019-03-30T20:01:09.216Z,16.35
2019-03-30T20:03:58.332Z,16.33
2019-03-30T20:06:48.990Z,17.87
2019-03-30T20:09:38.218Z,17.23
2019-03-30T20:12:28.066Z,17.40
2019-03-30T20:15:18.492Z,17.05
2019-03-30T20:18:08.553Z,17.65
2019-03-30T20:20:59.332Z,18.70
2019-03-30T20:23:48.533Z,18.00
2019-03-30T20:26:37.830Z,16.90
2019-03-30T20:29:27.795Z,18.95
2019-03-30T20:32:17.650Z,17.48
2019-03-30T20:35:08.902Z,17.40
2019-03-30T20:37:58.207Z,18.20
2019-03-30T20:40:47.122Z,17.90
2019-03-30T20:43:36.433Z,19.12
2019-03-30T20:46:25.997Z,19.02
2019-03-30T20:49:15.396Z,17.87
2019-03-30T20:52:04.937Z,17.30
2019-03-30T20:54:54.670Z,18.20
2019-03-30T20:57:43.954Z,17.55
2019-03-30T21:00:34.155Z,17.98
2019-03-30T21:03:23.217Z,16.57
2019-03-30T21:06:13.126Z,15.80
2019-03-30T21:09:02.619Z,20.80
2019-03-30T21:11:52.342Z,17.70
2019-03-30T21:14:41.813Z,16.77
2019-03-30T21:17:31.405Z,16.93
2019-03-30T21:20:20.569Z,16.90
2019-03-30T21:23:09.687Z,17.50
2019-03-30T21:25:58.811Z,16.55
2019-03-30T21:28:48.207Z,16.07
2019-03-30T21:31:37.561Z,16.32
2019-03-30T21:34:27.347Z,15.98
2019-03-30T21:37:17.048Z,15.90
2019-03-30T21:40:07.298Z,16.27
2019-03-30T21:42:56.480Z,16.70
2019-03-30T21:45:46.151Z,16.50
2019-03-30T21:48:35.949Z,15.80
2019-03-30T21:51:25.442Z,16.30
2019-03-30T21:54:15.070Z,16.93
2019-03-30T21:57:04.326Z,17.73
2019-03-30T21:59:53.596Z,16.80
2019-03-30T22:02:42.986Z,17.02
2019-03-30T22:05:34.567Z,16.40
2019-03-30T22:08:22.884Z,17.90
2019-03-30T22:11:11.819Z,16.73
2019-03-30T22:14:00.795Z,16.60
2019-03-30T22:16:50.118Z,16.97
2019-03-30T22:19:39.204Z,16.40
2019-03-30T22:22:28.734Z,16.93
2019-03-30T22:25:18.228Z,17.10
2019-03-30T22:28:07.716Z,16.00
2019-03-30T22:30:56.783Z,16.65
2019-03-30T22:33:48.250Z,17.07
2019-03-30T22:36:38.520Z,17.70
2019-03-30T22:39:28.275Z,16.30
2019-03-30T22:42:17.557Z,17.40
2019-03-30T22:45:07.293Z,17.60
2019-03-30T22:47:56.743Z,16.90
2019-03-30T22:50:46.409Z,17.25
2019-03-30T22:53:36.329Z,16.53
2019-03-30T22:56:25.015Z,16.85
2019-03-30T22:59:14.235Z,17.17
2019-03-30T23:02:03.681Z,17.52
2019-03-30T23:04:53.299Z,16.17
2019-03-30T23:07:42.695Z,17.07
2019-03-30T23:10:31.440Z,17.52
2019-03-30T23:13:20.681Z,17.65
2019-03-30T23:16:09.489Z,17.37
2019-03-30T23:18:59.199Z,16.80
2019-03-30T23:21:48.718Z,17.70
2019-03-30T23:24:37.610Z,17.30
2019-03-30T23:27:26.971Z,17.40
2019-03-30T23:30:17.063Z,17.32
2019-03-30T23:33:06.314Z,17.75
2019-03-30T23:35:55.803Z,17.40
2019-03-30T23:38:45.547Z,16.67
2019-03-30T23:41:35.165Z,16.60
2019-03-30T23:44:24.079Z,16.37
2019-03-30T23:47:13.689Z,15.60
2019-03-30T23:50:02.877Z,16.20
2019-03-30T23:52:52.433Z,16.82
2019-03-30T23:55:42.193Z,16.30
2019-03-30T23:58:31.994Z,15.75
